createdAt,value
2023-01-25T00:01:50.129Z,3.20
2023-01-25T00:04:19.970Z,3.20
2023-01-25T00:06:48.447Z,3.10
2023-01-25T00:09:17.559Z,3.10
2023-01-25T00:11:45.924Z,3.20
2023-01-25T00:14:15.181Z,3.10
2023-01-25T00:16:44.409Z,3.10
2023-01-25T00:19:14.156Z,3.10
2023-01-25T00:21:45.164Z,3.10
2023-01-25T00:24:14.530Z,3.10
2023-01-25T00:26:44.881Z,3.10
2023-01-25T00:29:14.179Z,3.10
2023-01-25T00:31:51.147Z,3.10
2023-01-25T00:34:49.195Z,3.10
2023-01-25T00:37:25.348Z,3.10
2023-01-25T00:39:53.940Z,3.10
2023-01-25T00:42:22.529Z,3.10
2023-01-25T00:44:50.797Z,3.00
2023-01-25T00:47:21.440Z,3.10
2023-01-25T00:49:51.126Z,3.10
2023-01-25T00:52:19.650Z,3.10
2023-01-25T00:54:48.070Z,3.10
2023-01-25T00:57:16.231Z,3.10
2023-01-25T00:59:45.958Z,3.10
2023-01-25T01:02:15.698Z,2.90
2023-01-25T01:04:43.909Z,2.90
2023-01-25T01:07:15.507Z,2.90
2023-01-25T01:09:43.833Z,2.90
2023-01-25T01:12:12.013Z,2.90
2023-01-25T01:14:40.407Z,2.80
2023-01-25T01:17:08.625Z,2.80
2023-01-25T01:19:36.860Z,2.80
2023-01-25T01:22:05.218Z,2.80
2023-01-25T01:24:34.796Z,2.70
2023-01-25T01:27:04.364Z,2.70
2023-01-25T01:29:33.205Z,2.70
2023-01-25T01:32:01.494Z,2.70
2023-01-25T01:34:29.897Z,2.70
2023-01-25T01:36:58.105Z,2.70
2023-01-25T01:39:28.305Z,2.60
2023-01-25T01:41:58.287Z,2.60
2023-01-25T01:44:44.701Z,2.50
2023-01-25T01:47:17.411Z,2.50
2023-01-25T01:49:54.222Z,2.60
2023-01-25T01:52:27.859Z,2.60
2023-01-25T01:55:00.299Z,2.60
2023-01-25T01:57:35.691Z,2.60
2023-01-25T02:00:09.994Z,2.50
2023-01-25T02:02:41.659Z,2.50
2023-01-25T02:05:15.762Z,2.50
2023-01-25T02:07:48.030Z,2.50
2023-01-25T02:10:17.207Z,2.50
2023-01-25T02:12:49.186Z,2.40
2023-01-25T02:15:17.408Z,2.40
2023-01-25T02:17:45.679Z,2.40
2023-01-25T02:20:22.198Z,2.50
2023-01-25T02:22:57.665Z,2.50
2023-01-25T02:25:27.522Z,2.40
2023-01-25T02:27:58.663Z,2.40
2023-01-25T02:30:30.082Z,2.40
2023-01-25T02:32:58.235Z,2.40
2023-01-25T02:35:41.462Z,2.40
2023-01-25T02:38:13.213Z,2.40
2023-01-25T02:40:47.914Z,2.30
2023-01-25T02:43:17.371Z,2.30
2023-01-25T02:45:50.304Z,2.40
2023-01-25T02:48:18.489Z,2.40
2023-01-25T02:50:46.631Z,2.40
2023-01-25T02:53:17.298Z,2.30
2023-01-25T02:55:49.467Z,2.30
2023-01-25T02:58:17.681Z,2.30
2023-01-25T03:00:45.900Z,2.30
2023-01-25T03:03:14.128Z,2.30
2023-01-25T03:05:42.566Z,2.20
2023-01-25T03:08:10.763Z,2.20
2023-01-25T03:10:39.008Z,2.20
2023-01-25T03:13:08.793Z,2.10
2023-01-25T03:15:36.976Z,2.20
2023-01-25T03:18:05.391Z,2.10
2023-01-25T03:20:34.012Z,2.10
2023-01-25T03:23:02.279Z,2.00
2023-01-25T03:25:30.565Z,2.00
2023-01-25T03:28:11.673Z,2.00
2023-01-25T03:30:40.824Z,2.00
2023-01-25T03:33:09.335Z,2.00
2023-01-25T03:35:37.905Z,2.00
2023-01-25T03:38:06.705Z,2.00
2023-01-25T03:40:35.339Z,2.00
2023-01-25T03:43:03.633Z,1.90
2023-01-25T03:45:33.211Z,2.00
2023-01-25T03:48:02.828Z,2.00
2023-01-25T03:50:31.184Z,2.00
2023-01-25T03:53:03.583Z,2.00
2023-01-25T03:55:33.259Z,1.90
2023-01-25T03:58:01.608Z,1.90
2023-01-25T04:00:30.004Z,1.90
2023-01-25T04:03:03.330Z,2.00
2023-01-25T04:05:31.999Z,2.00
2023-01-25T04:08:01.473Z,1.90
2023-01-25T04:10:36.233Z,1.90
2023-01-25T04:13:05.398Z,1.80
2023-01-25T04:15:34.107Z,1.80
2023-01-25T04:18:10.550Z,1.70
2023-01-25T04:20:39.002Z,1.80
2023-01-25T04:23:07.793Z,1.80
2023-01-25T04:25:40.269Z,1.80
2023-01-25T04:28:13.527Z,1.80
2023-01-25T04:30:41.881Z,1.80
2023-01-25T04:33:14.566Z,1.80
2023-01-25T04:35:43.131Z,1.80
2023-01-25T04:38:15.548Z,1.70
2023-01-25T04:40:46.005Z,1.80
2023-01-25T04:43:15.291Z,1.70
2023-01-25T04:45:45.179Z,1.70
2023-01-25T04:48:23.234Z,1.70
2023-01-25T04:50:57.033Z,1.70
2023-01-25T04:53:25.918Z,1.70
2023-01-25T04:55:55.862Z,1.60
2023-01-25T04:58:25.808Z,1.50
2023-01-25T05:00:55.021Z,1.60
2023-01-25T05:03:26.754Z,1.50
2023-01-25T05:05:55.780Z,1.60
2023-01-25T05:08:26.890Z,1.50
2023-01-25T05:11:00.084Z,1.50
2023-01-25T05:13:28.237Z,1.50
2023-01-25T05:16:09.161Z,1.60
2023-01-25T05:18:48.317Z,1.60
2023-01-25T05:21:38.770Z,1.60
2023-01-25T05:24:07.948Z,1.50
2023-01-25T05:26:53.899Z,1.50
2023-01-25T05:29:22.828Z,1.30
2023-01-25T05:32:00.592Z,1.40
2023-01-25T05:34:32.494Z,1.40
2023-01-25T05:37:01.150Z,1.40
2023-01-25T05:39:30.057Z,1.40
2023-01-25T05:41:58.627Z,1.30
2023-01-25T05:44:29.140Z,1.30
2023-01-25T05:46:57.422Z,1.30
2023-01-25T05:49:25.638Z,1.20
2023-01-25T05:51:55.806Z,1.30
2023-01-25T05:54:24.058Z,1.20
2023-01-25T05:57:01.255Z,1.10
2023-01-25T05:59:29.598Z,1.00
2023-01-25T06:02:00.129Z,1.10
2023-01-25T06:04:31.032Z,1.00
2023-01-25T06:07:00.590Z,0.90
2023-01-25T06:09:29.025Z,0.90
2023-01-25T06:11:57.220Z,0.90
2023-01-25T06:14:25.402Z,1.00
2023-01-25T06:16:54.158Z,0.90
2023-01-25T06:19:48.327Z,0.90
2023-01-25T06:22:32.665Z,0.80
2023-01-25T06:25:03.117Z,0.80
2023-01-25T06:27:31.382Z,0.80
2023-01-25T06:29:59.552Z,0.80
2023-01-25T06:32:33.175Z,0.80
2023-01-25T06:35:01.393Z,0.90
2023-01-25T06:37:29.677Z,0.80
2023-01-25T06:39:59.310Z,0.90
2023-01-25T06:42:27.541Z,0.80
2023-01-25T06:44:55.877Z,0.90
2023-01-25T06:47:24.056Z,0.80
2023-01-25T06:49:52.231Z,0.90
2023-01-25T06:52:20.391Z,0.80
2023-01-25T06:54:48.576Z,0.90
2023-01-25T06:57:18.084Z,0.90
2023-01-25T06:59:46.269Z,0.80
2023-01-25T07:02:16.209Z,0.90
2023-01-25T07:04:44.376Z,0.90
2023-01-25T07:07:15.570Z,0.80
2023-01-25T07:09:46.782Z,1.00
2023-01-25T07:12:14.956Z,1.00
2023-01-25T07:14:44.615Z,0.90
2023-01-25T07:17:12.771Z,0.90
2023-01-25T07:19:41.001Z,0.90
2023-01-25T07:22:09.334Z,0.90
2023-01-25T07:24:40.148Z,0.90
2023-01-25T07:27:15.581Z,0.90
2023-01-25T07:29:45.193Z,0.90
2023-01-25T07:32:14.891Z,0.90
2023-01-25T07:34:43.080Z,1.00
2023-01-25T07:37:11.394Z,1.00
2023-01-25T07:39:47.610Z,0.90
2023-01-25T07:42:15.783Z,1.00
2023-01-25T07:44:53.801Z,1.00
2023-01-25T07:47:22.000Z,1.10
2023-01-25T07:49:50.386Z,1.00
2023-01-25T07:52:18.583Z,1.00
2023-01-25T07:54:48.347Z,1.00
2023-01-25T07:57:17.424Z,1.00
2023-01-25T07:59:45.555Z,1.00
2023-01-25T08:02:15.139Z,1.00
2023-01-25T08:04:45.512Z,1.10
2023-01-25T08:07:13.982Z,1.10
2023-01-25T08:09:42.752Z,1.00
2023-01-25T08:12:10.992Z,1.00
2023-01-25T08:14:39.241Z,1.00
2023-01-25T08:17:07.787Z,1.10
2023-01-25T08:19:37.402Z,1.10
2023-01-25T08:22:08.305Z,1.10
2023-01-25T08:24:38.736Z,1.10
2023-01-25T08:27:07.100Z,1.00
2023-01-25T08:29:37.618Z,1.00
2023-01-25T08:32:06.373Z,1.00
2023-01-25T08:34:35.142Z,1.00
2023-01-25T08:37:04.772Z,1.00
2023-01-25T08:39:32.948Z,1.10
2023-01-25T08:42:01.173Z,1.10
2023-01-25T08:44:29.310Z,1.10
2023-01-25T08:46:57.720Z,1.10
2023-01-25T08:49:27.259Z,1.00
2023-01-25T08:51:55.451Z,1.10
2023-01-25T08:54:24.980Z,1.10
2023-01-25T08:56:53.212Z,1.20
2023-01-25T08:59:21.387Z,1.20
2023-01-25T09:01:51.816Z,1.20
2023-01-25T09:04:20.147Z,1.20
2023-01-25T09:06:48.309Z,1.10
2023-01-25T09:09:16.628Z,1.20
2023-01-25T09:11:46.188Z,1.20
2023-01-25T09:14:16.550Z,1.20
2023-01-25T09:16:44.787Z,1.30
2023-01-25T09:19:13.331Z,1.30
2023-01-25T09:21:41.784Z,1.30
2023-01-25T09:24:10.097Z,1.20
2023-01-25T09:26:40.852Z,1.20
2023-01-25T09:29:13.204Z,1.20
2023-01-25T09:31:43.869Z,1.30
2023-01-25T09:34:33.381Z,1.30
2023-01-25T09:37:01.758Z,1.40
2023-01-25T09:39:30.028Z,1.40
2023-01-25T09:42:52.314Z,1.30
2023-01-25T09:45:32.291Z,1.30
2023-01-25T09:48:13.378Z,1.30
2023-01-25T09:51:04.659Z,1.30
2023-01-25T09:53:35.901Z,1.40
2023-01-25T09:56:11.121Z,1.40
2023-01-25T09:58:41.710Z,1.50
2023-01-25T10:01:32.811Z,1.60
2023-01-25T10:04:11.886Z,1.60
2023-01-25T10:06:48.818Z,1.60
2023-01-25T10:09:29.007Z,1.60
2023-01-25T10:12:06.995Z,1.60
2023-01-25T10:14:35.793Z,1.60
2023-01-25T10:17:10.618Z,1.60
2023-01-25T10:19:57.196Z,1.70
2023-01-25T10:22:29.926Z,1.60
2023-01-25T10:25:22.024Z,1.70
2023-01-25T10:28:03.489Z,1.70
2023-01-25T10:30:34.589Z,1.70
2023-01-25T10:33:13.211Z,1.70
2023-01-25T10:35:47.152Z,1.60
2023-01-25T10:38:21.258Z,1.60
2023-01-25T10:40:54.553Z,1.80
2023-01-25T10:43:24.047Z,1.80
2023-01-25T10:45:52.855Z,1.80
2023-01-25T10:48:26.708Z,1.80
2023-01-25T10:50:57.560Z,1.80
2023-01-25T10:53:36.979Z,1.80
2023-01-25T10:56:22.189Z,1.90
2023-01-25T10:58:54.356Z,2.00
2023-01-25T11:01:31.165Z,2.00
2023-01-25T11:04:02.062Z,2.00
2023-01-25T11:06:35.781Z,2.00
2023-01-25T11:09:28.178Z,1.90
2023-01-25T11:11:58.819Z,2.00
2023-01-25T11:14:29.042Z,1.90
2023-01-25T11:16:58.549Z,1.90
2023-01-25T11:19:33.431Z,1.80
2023-01-25T11:22:06.359Z,1.80
2023-01-25T11:24:37.903Z,1.80
2023-01-25T11:27:20.040Z,1.80
2023-01-25T11:30:09.772Z,1.90
2023-01-25T11:32:39.873Z,1.90
2023-01-25T11:35:14.706Z,1.80
2023-01-25T11:38:13.799Z,1.90
2023-01-25T11:40:48.431Z,1.90
2023-01-25T11:43:29.295Z,1.90
2023-01-25T11:46:19.955Z,1.80
2023-01-25T11:49:18.443Z,1.90
2023-01-25T11:51:54.948Z,1.90
2023-01-25T11:54:54.445Z,1.80
2023-01-25T11:57:43.396Z,1.90
2023-01-25T12:00:27.935Z,1.80
2023-01-25T12:03:34.458Z,1.80
2023-01-25T12:06:07.507Z,1.90
2023-01-25T12:08:52.923Z,1.90
2023-01-25T12:11:38.083Z,1.90
2023-01-25T12:14:15.120Z,1.90
2023-01-25T12:16:56.024Z,1.90
2023-01-25T12:19:38.438Z,1.80
2023-01-25T12:22:30.975Z,1.90
2023-01-25T12:25:09.197Z,1.90
2023-01-25T12:27:50.873Z,1.80
2023-01-25T12:30:24.759Z,1.80
2023-01-25T12:33:08.894Z,1.90
2023-01-25T12:35:50.715Z,1.90
2023-01-25T12:38:26.802Z,1.90
2023-01-25T12:41:00.981Z,1.90
2023-01-25T12:43:39.360Z,1.90
2023-01-25T12:46:15.905Z,1.80
2023-01-25T12:48:49.817Z,1.80
2023-01-25T12:51:19.932Z,1.80
2023-01-25T12:53:53.412Z,1.80
2023-01-25T12:56:33.816Z,1.90
2023-01-25T12:59:09.093Z,1.90
2023-01-25T13:01:47.436Z,1.90
2023-01-25T13:04:41.162Z,1.90
2023-01-25T13:07:17.123Z,1.90
2023-01-25T13:09:53.166Z,1.80
2023-01-25T13:12:24.638Z,1.90
2023-01-25T13:14:53.123Z,1.90
2023-01-25T13:17:31.596Z,1.80
2023-01-25T13:20:02.091Z,1.90
2023-01-25T13:23:00.684Z,1.90
2023-01-25T13:25:28.895Z,1.90
2023-01-25T13:28:35.425Z,1.90
2023-01-25T13:31:05.040Z,2.00
2023-01-25T13:33:35.126Z,2.00
2023-01-25T13:36:46.555Z,2.00
2023-01-25T13:39:43.484Z,2.10
2023-01-25T13:42:25.459Z,2.00
2023-01-25T13:44:58.352Z,2.10
2023-01-25T13:47:31.297Z,2.10
2023-01-25T13:50:09.730Z,2.10
2023-01-25T13:52:38.155Z,2.10
2023-01-25T13:55:18.809Z,2.10
2023-01-25T13:58:10.513Z,2.00
2023-01-25T14:00:38.789Z,2.00
2023-01-25T14:03:08.441Z,2.10
2023-01-25T14:05:36.917Z,2.10
2023-01-25T14:08:05.336Z,2.00
2023-01-25T14:10:33.596Z,2.00
2023-01-25T14:13:01.955Z,1.90
2023-01-25T14:15:32.250Z,1.90
2023-01-25T14:18:16.363Z,1.90
2023-01-25T14:20:46.170Z,1.90
2023-01-25T14:23:25.527Z,1.90
2023-01-25T14:25:55.122Z,1.90
2023-01-25T14:28:23.772Z,1.80
2023-01-25T14:30:54.872Z,1.80
2023-01-25T14:33:28.920Z,1.80
2023-01-25T14:36:16.374Z,1.80
2023-01-25T14:38:55.149Z,1.90
2023-01-25T14:41:27.354Z,1.80
2023-01-25T14:44:00.328Z,1.80
2023-01-25T14:46:31.550Z,1.70
2023-01-25T14:49:19.577Z,1.70
2023-01-25T14:51:51.737Z,1.70
2023-01-25T14:54:22.445Z,1.70
2023-01-25T14:56:52.974Z,1.70
2023-01-25T14:59:34.174Z,1.70
2023-01-25T15:02:05.844Z,1.70
2023-01-25T15:04:35.807Z,1.70
2023-01-25T15:07:17.323Z,1.70
2023-01-25T15:10:02.807Z,1.70
2023-01-25T15:12:33.077Z,1.70
2023-01-25T15:15:02.796Z,1.70
2023-01-25T15:17:45.530Z,1.60
2023-01-25T15:20:37.036Z,1.60
2023-01-25T15:23:30.764Z,1.60
2023-01-25T15:26:00.555Z,1.60
2023-01-25T15:28:34.393Z,1.60
2023-01-25T15:31:05.874Z,1.50
2023-01-25T15:33:35.604Z,1.60
2023-01-25T15:36:05.614Z,1.60
2023-01-25T15:38:33.798Z,1.60
2023-01-25T15:41:02.640Z,1.60
2023-01-25T15:43:30.859Z,1.60
2023-01-25T15:46:01.140Z,1.60
2023-01-25T15:48:34.623Z,1.60
2023-01-25T15:51:05.190Z,1.60
2023-01-25T15:53:33.423Z,1.60
2023-01-25T15:56:04.663Z,1.50
2023-01-25T15:58:37.013Z,1.50
2023-01-25T16:01:05.339Z,1.60
2023-01-25T16:03:33.703Z,1.50
2023-01-25T16:06:05.572Z,1.60
2023-01-25T16:08:36.775Z,1.70
2023-01-25T16:11:05.067Z,1.60
2023-01-25T16:13:35.494Z,1.60
2023-01-25T16:16:04.046Z,1.60
2023-01-25T16:18:32.786Z,1.50
2023-01-25T16:21:03.217Z,1.50
2023-01-25T16:23:35.414Z,1.50
2023-01-25T16:26:04.118Z,1.50
2023-01-25T16:28:32.441Z,1.50
2023-01-25T16:31:00.865Z,1.50
2023-01-25T16:33:29.047Z,1.50
2023-01-25T16:36:10.510Z,1.50
2023-01-25T16:38:40.205Z,1.50
2023-01-25T16:41:08.461Z,1.50
2023-01-25T16:43:42.939Z,1.50
2023-01-25T16:46:17.463Z,1.50
2023-01-25T16:48:46.289Z,1.60
2023-01-25T16:51:18.140Z,1.50
2023-01-25T16:53:49.034Z,1.50
2023-01-25T16:56:21.524Z,1.60
2023-01-25T16:58:50.604Z,1.40
2023-01-25T17:01:21.077Z,1.40
2023-01-25T17:03:50.070Z,1.40
2023-01-25T17:06:20.345Z,1.40
2023-01-25T17:08:53.911Z,1.50
2023-01-25T17:11:23.344Z,1.50
2023-01-25T17:13:52.348Z,1.60
2023-01-25T17:16:21.332Z,1.60
2023-01-25T17:18:54.753Z,1.50
2023-01-25T17:21:23.096Z,1.50
2023-01-25T17:23:53.325Z,1.50
2023-01-25T17:26:23.291Z,1.60
2023-01-25T17:28:52.514Z,1.60
2023-01-25T17:31:23.260Z,1.60
2023-01-25T17:33:51.759Z,1.60
2023-01-25T17:36:20.727Z,1.60
2023-01-25T17:38:49.202Z,1.50
2023-01-25T17:41:18.908Z,1.40
2023-01-25T17:43:52.360Z,1.40
2023-01-25T17:46:25.510Z,1.40
2023-01-25T17:48:54.426Z,1.40
2023-01-25T17:51:24.805Z,1.40
2023-01-25T17:53:53.301Z,1.40
2023-01-25T17:56:22.843Z,1.40
2023-01-25T17:58:51.564Z,1.40
2023-01-25T18:01:21.679Z,1.40
2023-01-25T18:03:51.211Z,1.50
2023-01-25T18:06:29.147Z,1.50
2023-01-25T18:09:00.039Z,1.50
2023-01-25T18:11:31.968Z,1.50
2023-01-25T18:14:04.491Z,1.50
2023-01-25T18:16:33.531Z,1.50
2023-01-25T18:19:02.780Z,1.60
2023-01-25T18:21:34.658Z,1.50
2023-01-25T18:24:07.439Z,1.60
2023-01-25T18:26:38.095Z,1.60
2023-01-25T18:29:47.317Z,1.60
2023-01-25T18:32:16.687Z,1.60
2023-01-25T18:34:44.967Z,1.60
2023-01-25T18:37:29.290Z,1.50
2023-01-25T18:39:57.998Z,1.60
2023-01-25T18:42:28.359Z,1.60
2023-01-25T18:44:56.584Z,1.60
2023-01-25T18:47:24.916Z,1.60
2023-01-25T18:49:53.925Z,1.60
2023-01-25T18:52:23.969Z,1.60
2023-01-25T18:54:52.677Z,1.60
2023-01-25T18:57:23.422Z,1.60
2023-01-25T18:59:53.844Z,1.70
2023-01-25T19:02:23.613Z,1.60
2023-01-25T19:04:51.957Z,1.70
2023-01-25T19:07:20.245Z,1.70
2023-01-25T19:09:48.424Z,1.60
2023-01-25T19:12:16.596Z,1.60
2023-01-25T19:14:44.800Z,1.60
2023-01-25T19:17:14.309Z,1.60
2023-01-25T19:19:44.146Z,1.50
2023-01-25T19:22:12.482Z,1.60
2023-01-25T19:24:40.661Z,1.50
2023-01-25T19:27:08.876Z,1.50
2023-01-25T19:29:37.768Z,1.60
2023-01-25T19:32:06.429Z,1.50
2023-01-25T19:34:38.595Z,1.50
2023-01-25T19:37:07.001Z,1.60
2023-01-25T19:39:35.904Z,1.60
2023-01-25T19:42:04.055Z,1.60
2023-01-25T19:44:32.344Z,1.50
2023-01-25T19:47:00.508Z,1.60
2023-01-25T19:49:28.710Z,1.60
2023-01-25T19:51:58.239Z,1.60
2023-01-25T19:54:26.437Z,1.60
2023-01-25T19:56:54.586Z,1.60
2023-01-25T19:59:25.733Z,1.60
2023-01-25T20:01:54.421Z,1.60
2023-01-25T20:04:25.719Z,1.60
2023-01-25T20:06:54.010Z,1.50
2023-01-25T20:09:28.071Z,1.50
2023-01-25T20:11:57.375Z,1.40
2023-01-25T20:14:25.607Z,1.50
2023-01-25T20:16:53.765Z,1.50
2023-01-25T20:19:22.060Z,1.50
2023-01-25T20:21:50.364Z,1.50
2023-01-25T20:24:21.126Z,1.60
2023-01-25T20:26:51.290Z,1.60
2023-01-25T20:29:19.977Z,1.50
2023-01-25T20:31:48.458Z,1.60
2023-01-25T20:34:18.852Z,1.60
2023-01-25T20:36:47.892Z,1.60
2023-01-25T20:39:20.475Z,1.60
2023-01-25T20:41:53.702Z,1.70
2023-01-25T20:44:22.209Z,1.60
2023-01-25T20:46:55.443Z,1.60
2023-01-25T20:49:25.904Z,1.60
2023-01-25T20:51:58.179Z,1.60
2023-01-25T20:54:26.355Z,1.60
2023-01-25T20:56:58.280Z,1.60
2023-01-25T20:59:28.737Z,1.60
2023-01-25T21:01:56.951Z,1.60
2023-01-25T21:04:25.306Z,1.60
2023-01-25T21:06:53.476Z,1.60
2023-01-25T21:09:22.551Z,1.60
2023-01-25T21:11:50.794Z,1.70
2023-01-25T21:14:20.495Z,1.70
2023-01-25T21:16:48.733Z,1.70
2023-01-25T21:19:16.919Z,1.70
2023-01-25T21:21:47.594Z,1.70
2023-01-25T21:24:18.234Z,1.70
2023-01-25T21:26:46.489Z,1.70
2023-01-25T21:29:14.634Z,1.70
2023-01-25T21:31:46.701Z,1.70
2023-01-25T21:34:14.873Z,1.70
2023-01-25T21:36:43.082Z,1.60
2023-01-25T21:39:11.244Z,1.60
2023-01-25T21:41:39.425Z,1.70
2023-01-25T21:44:28.460Z,1.70
2023-01-25T21:47:27.708Z,1.70
2023-01-25T21:50:07.028Z,1.70
2023-01-25T21:52:38.171Z,1.60
2023-01-25T21:55:07.251Z,1.60
2023-01-25T21:57:35.605Z,1.60
2023-01-25T22:00:05.065Z,1.70
2023-01-25T22:02:34.987Z,1.70
2023-01-25T22:05:03.177Z,1.70
2023-01-25T22:07:33.566Z,1.70
2023-01-25T22:10:05.719Z,1.70
2023-01-25T22:12:34.011Z,1.70
2023-01-25T22:15:02.617Z,1.70
2023-01-25T22:17:30.756Z,1.70
2023-01-25T22:20:00.351Z,1.70
2023-01-25T22:22:31.527Z,1.70
2023-01-25T22:25:05.715Z,1.70
2023-01-25T22:27:42.657Z,1.70
2023-01-25T22:30:12.810Z,1.60
2023-01-25T22:32:41.146Z,1.70
2023-01-25T22:35:11.154Z,1.70
2023-01-25T22:37:39.335Z,1.80
2023-01-25T22:40:09.507Z,1.70
2023-01-25T22:42:40.333Z,1.70
2023-01-25T22:45:09.424Z,1.80
2023-01-25T22:47:37.708Z,1.80
2023-01-25T22:50:06.649Z,1.80
2023-01-25T22:52:36.223Z,1.80
2023-01-25T22:55:06.275Z,1.80
2023-01-25T22:57:34.443Z,1.80
2023-01-25T23:00:06.176Z,1.70
2023-01-25T23:02:35.956Z,1.70
2023-01-25T23:05:05.897Z,1.70
2023-01-25T23:07:35.406Z,1.70
2023-01-25T23:10:07.543Z,1.70
2023-01-25T23:12:35.746Z,1.70
2023-01-25T23:15:07.197Z,1.80
2023-01-25T23:18:04.086Z,1.80
2023-01-25T23:20:32.398Z,1.80
2023-01-25T23:23:01.918Z,1.80
2023-01-25T23:25:33.778Z,1.80
2023-01-25T23:28:01.992Z,1.90
2023-01-25T23:30:30.139Z,1.80
2023-01-25T23:33:00.806Z,1.80
2023-01-25T23:35:29.023Z,1.80
2023-01-25T23:37:57.140Z,1.80
2023-01-25T23:40:26.760Z,1.80
2023-01-25T23:42:57.743Z,1.80
2023-01-25T23:45:25.986Z,1.80
2023-01-25T23:47:54.491Z,1.80
2023-01-25T23:50:22.687Z,1.80
2023-01-25T23:52:50.933Z,1.80
2023-01-25T23:55:19.144Z,1.80
2023-01-25T23:57:54.319Z,1.80
